Time;durP1;ratioP1;P1;durP2;ratioP2;P2;SDS_P1;SDS_P2;PMS_P1;PMS_P2;Temp;Humidity;BMP_temperature;BMP_pressure;BME280_temperature;BME280_humidity;BME280_pressure;Samples;Min_cycle;Max_cycle;Signal;HPM_P1;HPM_P2
2022/12/14 00:00:03;;;;;;;83.75;39.72;;;-5.90;99.90;;;;;;2036385;29;20523;-71
2022/12/14 00:01:19;;;;;;;85.95;39.53;;;-5.90;99.90;;;;;;2037082;29;20636;-70
2022/12/14 00:02:20;;;;;;;83.95;39.65;;;-5.90;99.90;;;;;;2038809;29;20052;-70
2022/12/14 00:03:21;;;;;;;80.38;38.13;;;-5.90;99.90;;;;;;2038564;29;20040;-70
2022/12/14 00:04:21;;;;;;;81.60;39.13;;;-5.90;99.90;;;;;;2037762;29;20042;-69
2022/12/14 00:05:22;;;;;;;88.93;40.42;;;-5.90;99.90;;;;;;2037692;29;20125;-72
2022/12/14 00:06:25;;;;;;;81.28;38.20;;;-5.90;99.90;;;;;;2037331;29;20033;-71
2022/12/14 00:07:28;;;;;;;83.60;38.88;;;-5.90;99.90;;;;;;2044351;29;20035;-70
2022/12/14 00:08:29;;;;;;;81.05;37.85;;;-5.90;99.90;;;;;;2035879;29;20036;-70
2022/12/14 00:09:29;;;;;;;80.90;37.47;;;-5.90;99.90;;;;;;2036036;29;20062;-70
2022/12/14 00:10:35;;;;;;;79.05;37.35;;;-5.90;99.90;;;;;;2036308;29;20043;-70
2022/12/14 00:11:36;;;;;;;80.43;37.33;;;-5.90;99.90;;;;;;2036816;29;20107;-71
2022/12/14 00:12:37;;;;;;;81.47;38.08;;;-5.90;99.90;;;;;;2033119;29;20036;-70
2022/12/14 00:13:38;;;;;;;75.53;37.28;;;-5.90;99.90;;;;;;2032765;29;20028;-70
2022/12/14 00:14:39;;;;;;;80.60;38.83;;;-5.90;99.90;;;;;;2033067;29;20040;-70
2022/12/14 00:15:40;;;;;;;79.55;37.22;;;-5.90;99.90;;;;;;2040149;29;20059;-70
2022/12/14 00:16:40;;;;;;;75.97;36.88;;;-5.90;99.90;;;;;;2040037;29;20075;-70
2022/12/14 00:17:41;;;;;;;78.80;37.38;;;-5.90;99.90;;;;;;2032358;29;20028;-70
2022/12/14 00:18:43;;;;;;;80.13;37.30;;;-5.90;99.90;;;;;;2031937;29;20064;-70
2022/12/14 00:19:51;;;;;;;75.57;36.53;;;-5.90;99.90;;;;;;2033835;29;20101;-72
2022/12/14 00:20:52;;;;;;;75.47;36.92;;;-5.90;99.90;;;;;;2026458;29;20120;-70
2022/12/14 00:21:56;;;;;;;85.68;39.65;;;-5.90;99.90;;;;;;2032781;29;20064;-71
2022/12/14 00:23:03;;;;;;;85.97;39.80;;;-5.90;99.90;;;;;;2041254;29;20126;-71
2022/12/14 00:24:07;;;;;;;;;;;-5.90;99.90;;;;;;2033669;29;20032;-71
2022/12/14 00:25:11;;;;;;;88.60;39.47;;;-5.90;99.90;;;;;;2025350;29;19915;-71
2022/12/14 00:26:21;;;;;;;87.80;39.35;;;-5.90;99.90;;;;;;2025457;29;20462;-71
2022/12/14 00:27:22;;;;;;;82.32;38.28;;;-5.90;99.90;;;;;;2033216;29;20162;-70
2022/12/14 00:28:22;;;;;;;75.57;37.58;;;-5.90;99.90;;;;;;2033179;29;20043;-70
2022/12/14 00:29:23;;;;;;;78.47;38.17;;;-5.90;99.90;;;;;;2032781;29;20040;-70
2022/12/14 00:30:24;;;;;;;81.03;39.90;;;-5.90;99.90;;;;;;2040618;29;20046;-69
2022/12/14 00:31:25;;;;;;;79.45;36.95;;;-5.90;99.90;;;;;;2032931;29;20107;-70
2022/12/14 00:32:26;;;;;;;75.93;35.65;;;-5.90;99.90;;;;;;2032192;29;20055;-71
2022/12/14 00:33:26;;;;;;;72.00;34.90;;;-5.90;99.90;;;;;;2032065;29;20048;-70
2022/12/14 00:34:27;;;;;;;70.72;34.95;;;-5.90;99.90;;;;;;2032531;29;20637;-71
2022/12/14 00:35:28;;;;;;;75.65;37.05;;;-5.80;99.90;;;;;;2032196;29;20024;-71
2022/12/14 00:36:30;;;;;;;68.55;34.72;;;-5.90;99.90;;;;;;2032720;29;20562;-70
2022/12/14 00:37:30;;;;;;;72.45;35.95;;;-5.80;99.90;;;;;;2031927;29;20068;-71
2022/12/14 00:38:31;;;;;;;73.97;35.28;;;-5.80;99.90;;;;;;2030953;29;20060;-71
2022/12/14 00:39:32;;;;;;;69.18;35.33;;;-5.80;99.90;;;;;;2038923;29;20027;-70
2022/12/14 00:40:32;;;;;;;70.30;35.58;;;-5.80;99.90;;;;;;2038383;29;20118;-72
2022/12/14 00:41:33;;;;;;;71.82;35.22;;;-5.80;99.90;;;;;;2031614;29;20040;-71
2022/12/14 00:42:34;;;;;;;68.82;34.67;;;-5.80;99.90;;;;;;2031656;29;20039;-70
2022/12/14 00:43:35;;;;;;;70.43;35.35;;;-5.80;99.90;;;;;;2030949;29;20025;-71
2022/12/14 00:44:36;;;;;;;70.93;34.78;;;-5.80;99.90;;;;;;2031283;29;20664;-71
2022/12/14 00:45:37;;;;;;;70.65;35.05;;;-5.80;99.90;;;;;;2032380;29;20036;-70
2022/12/14 00:46:37;;;;;;;72.32;36.17;;;-5.80;99.90;;;;;;2032667;29;20054;-70
2022/12/14 00:47:38;;;;;;;67.75;34.17;;;-5.80;99.90;;;;;;2032561;29;20057;-70
2022/12/14 00:48:39;;;;;;;72.50;35.97;;;-5.80;99.90;;;;;;2032472;29;20187;-71
2022/12/14 00:49:40;;;;;;;68.35;35.33;;;-5.70;99.90;;;;;;2032471;29;20036;-71
2022/12/14 00:50:42;;;;;;;70.22;34.75;;;-5.70;99.90;;;;;;2032415;29;20758;-70
2022/12/14 00:51:43;;;;;;;69.15;35.53;;;-5.70;99.90;;;;;;2040098;29;20031;-70
2022/12/14 00:52:44;;;;;;;73.15;35.72;;;-5.70;99.90;;;;;;2040794;29;20154;-70
2022/12/14 00:53:44;;;;;;;75.15;36.63;;;-5.70;99.90;;;;;;2032494;29;20059;-70
2022/12/14 00:54:45;;;;;;;74.68;36.08;;;-5.60;99.90;;;;;;2032507;29;20035;-70
2022/12/14 00:55:47;;;;;;;69.18;34.42;;;-5.60;99.90;;;;;;2032263;29;20059;-70
2022/12/14 00:56:47;;;;;;;64.13;32.85;;;-5.60;99.90;;;;;;2032576;29;20028;-70
2022/12/14 00:57:49;;;;;;;65.88;32.88;;;-5.50;99.90;;;;;;2032494;29;20038;-70
2022/12/14 00:58:51;;;;;;;61.28;29.77;;;-5.50;99.90;;;;;;2040055;29;20023;-70
2022/12/14 00:59:52;;;;;;;58.40;29.98;;;-5.40;99.90;;;;;;2039501;29;20079;-70
2022/12/14 01:01:04;;;;;;;57.15;29.40;;;-5.30;99.90;;;;;;2031970;29;20079;-70
2022/12/14 01:02:05;;;;;;;52.50;26.13;;;-5.20;99.90;;;;;;2032572;29;20032;-71
2022/12/14 01:03:07;;;;;;;51.28;26.50;;;-5.10;99.90;;;;;;2032450;29;20111;-70
2022/12/14 01:04:18;;;;;;;53.22;26.83;;;-5.00;99.90;;;;;;2024013;29;20411;-70
2022/12/14 01:05:18;;;;;;;52.08;26.50;;;-5.00;99.90;;;;;;2025525;29;20033;-70
2022/12/14 01:06:21;;;;;;;51.10;25.98;;;-4.90;99.90;;;;;;2032364;29;20036;-70
2022/12/14 01:07:21;;;;;;;50.33;24.65;;;-4.80;99.90;;;;;;2032247;29;20075;-70
2022/12/14 01:08:22;;;;;;;49.30;25.13;;;-4.70;99.90;;;;;;2032409;29;20461;-70
2022/12/14 01:09:25;;;;;;;46.15;24.25;;;-4.60;99.90;;;;;;2032444;29;20036;-70
2022/12/14 01:10:26;;;;;;;47.60;24.63;;;-4.50;99.90;;;;;;2032253;29;20066;-71
2022/12/14 01:11:27;;;;;;;48.75;25.02;;;-4.50;99.90;;;;;;2031379;29;20040;-71
2022/12/14 01:12:27;;;;;;;46.80;23.80;;;-4.50;99.90;;;;;;2023762;29;20379;-70
2022/12/14 01:13:28;;;;;;;48.13;24.30;;;-4.40;99.90;;;;;;2031807;29;20069;-71
2022/12/14 01:14:29;;;;;;;48.08;24.40;;;-4.40;99.90;;;;;;2032525;29;20111;-71
2022/12/14 01:15:29;;;;;;;46.83;24.10;;;-4.40;99.90;;;;;;2032555;29;20028;-71
2022/12/14 01:16:30;;;;;;;43.70;23.52;;;-4.40;99.90;;;;;;2031627;29;20462;-72
2022/12/14 01:17:31;;;;;;;45.17;23.83;;;-4.40;99.90;;;;;;2031618;29;20036;-72
2022/12/14 01:18:37;;;;;;;46.35;23.65;;;-4.40;99.90;;;;;;2039521;29;20114;-71
2022/12/14 01:19:37;;;;;;;47.58;24.25;;;-4.30;99.90;;;;;;2032153;29;20047;-72
2022/12/14 01:20:38;;;;;;;42.95;22.98;;;-4.40;99.90;;;;;;2031084;29;20725;-71
2022/12/14 01:21:39;;;;;;;45.33;23.25;;;-4.30;99.90;;;;;;2031572;29;20094;-69
2022/12/14 01:22:40;;;;;;;47.80;24.02;;;-4.40;99.90;;;;;;2033240;29;20032;-72
2022/12/14 01:23:41;;;;;;;45.72;23.77;;;-4.30;99.90;;;;;;2032869;29;20051;-70
2022/12/14 01:24:43;;;;;;;45.88;23.58;;;-4.30;99.90;;;;;;2032417;29;20036;-69
2022/12/14 01:25:48;;;;;;;42.30;22.95;;;-4.30;99.90;;;;;;2031840;29;20067;-72
2022/12/14 01:26:51;;;;;;;41.83;22.88;;;-4.30;99.90;;;;;;2032462;29;20123;-70
2022/12/14 01:27:52;;;;;;;41.25;22.23;;;-4.30;99.90;;;;;;2032536;29;20528;-70
2022/12/14 01:28:56;;;;;;;41.28;22.50;;;-4.40;99.90;;;;;;2032273;29;20043;-70
2022/12/14 01:29:56;;;;;;;42.75;22.70;;;-4.30;99.90;;;;;;2039346;29;20031;-70
2022/12/14 01:30:57;;;;;;;42.40;22.25;;;-4.30;99.90;;;;;;2038747;29;20132;-69
2022/12/14 01:31:58;;;;;;;44.15;23.25;;;-4.30;99.90;;;;;;2032152;29;20124;-70
2022/12/14 01:32:59;;;;;;;43.00;22.52;;;-4.30;99.90;;;;;;2039235;29;20028;-70
2022/12/14 01:34:00;;;;;;;43.70;23.45;;;-4.30;99.90;;;;;;2039100;29;20032;-70
2022/12/14 01:35:01;;;;;;;40.88;22.42;;;-4.30;99.90;;;;;;2031920;29;20091;-69
2022/12/14 01:36:10;;;;;;;41.92;22.35;;;-4.30;99.90;;;;;;2031991;29;20059;-69
2022/12/14 01:37:11;;;;;;;40.88;21.77;;;-4.30;99.90;;;;;;2031699;29;20474;-70
2022/12/14 01:38:12;;;;;;;43.83;22.83;;;-4.30;99.90;;;;;;2031734;29;20060;-71
2022/12/14 01:39:14;;;;;;;40.55;22.00;;;-4.30;99.90;;;;;;2032256;29;20043;-71
2022/12/14 01:40:15;;;;;;;40.03;21.63;;;-4.30;99.90;;;;;;2031392;29;20062;-71
2022/12/14 01:41:36;;;;;;;41.35;22.40;;;-4.30;99.90;;;;;;2030810;29;20028;-71
2022/12/14 01:42:36;;;;;;;40.38;21.77;;;-4.30;99.90;;;;;;2031596;29;20048;-70
2022/12/14 01:43:52;;;;;;;38.63;21.50;;;-4.30;99.90;;;;;;2031844;29;20393;-70
2022/12/14 01:44:56;;;;;;;41.67;22.20;;;-4.30;99.90;;;;;;2031182;29;20528;-70
2022/12/14 01:45:57;;;;;;;42.83;22.48;;;-4.30;99.90;;;;;;2031608;29;20739;-70
2022/12/14 01:47:18;;;;;;;40.30;21.48;;;-4.30;99.90;;;;;;2039021;29;20044;-70
2022/12/14 01:48:20;;;;;;;41.22;21.98;;;-4.30;99.90;;;;;;2031863;29;20118;-70
2022/12/14 01:49:39;;;;;;;41.17;21.58;;;-4.20;99.90;;;;;;2031921;29;20055;-70
2022/12/14 01:50:43;;;;;;;41.83;21.75;;;-4.30;99.90;;;;;;2031504;29;20036;-70
2022/12/14 01:52:05;;;;;;;42.47;21.85;;;-4.20;99.90;;;;;;2031497;29;20036;-71
2022/12/14 01:53:11;;;;;;;41.05;21.58;;;-4.30;99.90;;;;;;2031564;29;20113;-70
2022/12/14 01:54:13;;;;;;;39.78;21.75;;;-4.20;99.90;;;;;;2031197;29;20032;-70
2022/12/14 01:55:26;;;;;;;41.10;21.63;;;-4.20;99.90;;;;;;2031262;29;20811;-71
2022/12/14 01:56:29;;;;;;;41.75;21.85;;;-4.20;99.90;;;;;;2031851;29;20090;-70
2022/12/14 01:57:54;;;;;;;40.92;21.95;;;-4.20;99.90;;;;;;2031724;29;20063;-70
2022/12/14 01:58:58;;;;;;;38.03;21.05;;;-4.30;99.90;;;;;;2023578;29;20035;-69
2022/12/14 01:59:59;;;;;;;41.83;22.38;;;-4.20;99.90;;;;;;2023622;29;20021;-69
2022/12/14 02:01:01;;;;;;;40.13;21.92;;;-4.30;99.90;;;;;;2031450;29;20043;-69
2022/12/14 02:02:05;;;;;;;38.22;21.60;;;-4.30;99.90;;;;;;2031089;29;20032;-70
2022/12/14 02:03:24;;;;;;;41.70;21.38;;;-4.30;99.90;;;;;;2031057;29;20580;-71
2022/12/14 02:04:25;;;;;;;39.95;21.08;;;-4.30;99.90;;;;;;2031607;29;20040;-73
2022/12/14 02:05:27;;;;;;;42.10;21.75;;;-4.30;99.90;;;;;;2031772;29;20039;-71
2022/12/14 02:06:35;;;;;;;40.88;22.48;;;-4.30;99.90;;;;;;2030922;29;20040;-72
2022/12/14 02:07:37;;;;;;;39.75;21.92;;;-4.30;99.90;;;;;;2023943;29;20025;-69
2022/12/14 02:08:40;;;;;;;46.55;23.98;;;-4.30;99.90;;;;;;2030958;29;20024;-70
2022/12/14 02:09:43;;;;;;;42.70;22.88;;;-4.30;99.90;;;;;;2031662;29;20030;-70
2022/12/14 02:10:45;;;;;;;39.63;22.17;;;-4.30;99.90;;;;;;2030546;29;20095;-70
2022/12/14 02:11:57;;;;;;;39.78;22.02;;;-4.30;99.90;;;;;;2030812;29;20036;-71
2022/12/14 02:13:07;;;;;;;41.35;22.05;;;-4.30;99.90;;;;;;2031917;29;20529;-71
2022/12/14 02:14:08;;;;;;;42.20;23.48;;;-4.30;99.90;;;;;;2031130;29;20451;-70
2022/12/14 02:15:10;;;;;;;40.38;22.45;;;-4.30;99.90;;;;;;2031000;29;20043;-70
2022/12/14 02:16:11;;;;;;;43.30;23.30;;;-4.30;99.90;;;;;;2023246;29;20036;-70
2022/12/14 02:17:13;;;;;;;40.17;22.52;;;-4.30;99.90;;;;;;2023055;29;20072;-70
2022/12/14 02:18:19;;;;;;;40.50;22.45;;;-4.30;99.90;;;;;;2030941;29;20043;-70
2022/12/14 02:19:20;;;;;;;42.45;23.15;;;-4.30;99.90;;;;;;2038015;29;20062;-70
2022/12/14 02:20:24;;;;;;;40.72;22.08;;;-4.30;99.90;;;;;;2031563;29;20127;-70
2022/12/14 02:22:00;;;;;;;42.13;22.90;;;-4.30;99.90;;;;;;2030953;29;20048;-70
2022/12/14 02:23:32;;;;;;;41.97;22.58;;;-4.30;99.90;;;;;;2031362;29;20419;-70
2022/12/14 02:25:07;;;;;;;42.47;22.63;;;-4.30;99.90;;;;;;2031468;29;20048;-70
2022/12/14 02:26:26;;;;;;;42.15;22.38;;;-4.30;99.90;;;;;;2031479;29;20455;-71
2022/12/14 02:27:48;;;;;;;43.20;23.05;;;-4.30;99.90;;;;;;2030996;29;20091;-71
2022/12/14 02:29:25;;;;;;;43.72;23.00;;;-4.40;99.90;;;;;;2031104;29;20129;-71
2022/12/14 02:30:27;;;;;;;43.92;22.88;;;-4.40;99.90;;;;;;2030948;29;20414;-72
2022/12/14 02:31:42;;;;;;;44.47;23.42;;;-4.30;99.90;;;;;;2031451;29;20064;-70
2022/12/14 02:32:52;;;;;;;42.92;22.73;;;-4.40;99.90;;;;;;2031885;29;20422;-70
2022/12/14 02:34:04;;;;;;;42.00;22.27;;;-4.40;99.90;;;;;;2031551;29;20094;-70
2022/12/14 02:35:13;;;;;;;42.83;22.98;;;-4.40;99.90;;;;;;2030828;29;20035;-71
2022/12/14 02:36:32;;;;;;;45.60;24.23;;;-4.30;99.90;;;;;;2030982;29;20043;-74
2022/12/14 02:37:40;;;;;;;42.10;22.85;;;-4.40;99.90;;;;;;2031616;29;20127;-71
2022/12/14 02:38:52;;;;;;;43.92;23.35;;;-4.30;99.90;;;;;;2031597;29;20028;-71
2022/12/14 02:40:03;;;;;;;43.65;22.90;;;-4.30;99.90;;;;;;2031572;29;20028;-70
2022/12/14 02:41:40;;;;;;;45.08;23.70;;;-4.30;99.90;;;;;;2022696;29;20040;-70
2022/12/14 02:42:57;;;;;;;44.53;22.75;;;-4.30;99.90;;;;;;2027658;29;20032;-71
2022/12/14 02:44:13;;;;;;;42.78;22.73;;;-4.30;99.90;;;;;;2031553;29;20489;-71
2022/12/14 02:45:34;;;;;;;43.60;22.92;;;-4.30;99.90;;;;;;2031715;29;20044;-72
2022/12/14 02:46:58;;;;;;;42.97;22.88;;;-4.30;99.90;;;;;;2030593;29;20047;-71
2022/12/14 02:48:10;;;;;;;44.13;22.75;;;-4.30;99.90;;;;;;2030949;29;20040;-71
2022/12/14 02:49:20;;;;;;;43.17;22.65;;;-4.30;99.90;;;;;;2031078;29;20048;-71
2022/12/14 02:50:37;;;;;;;45.17;24.08;;;-4.30;99.90;;;;;;2031548;29;20028;-71
2022/12/14 02:51:55;;;;;;;42.10;22.52;;;-4.30;99.90;;;;;;2038844;29;20036;-70
2022/12/14 02:53:20;;;;;;;42.95;23.40;;;-4.30;99.90;;;;;;2031019;29;20040;-71
2022/12/14 02:55:00;;;;;;;46.72;24.52;;;-4.30;99.90;;;;;;2031270;29;20803;-71
2022/12/14 02:56:06;;;;;;;43.63;22.50;;;-4.30;99.90;;;;;;2030983;29;20044;-71
2022/12/14 02:57:25;;;;;;;44.60;23.63;;;-4.30;99.90;;;;;;2031005;29;20029;-71
2022/12/14 02:58:39;;;;;;;43.43;23.40;;;-4.30;99.90;;;;;;2031440;29;20624;-71
2022/12/14 02:59:41;;;;;;;47.92;23.63;;;-4.30;99.90;;;;;;2031526;29;21043;-71
2022/12/14 03:00:42;;;;;;;45.17;23.92;;;-4.30;99.90;;;;;;2031261;29;20032;-70
2022/12/14 03:01:45;;;;;;;45.58;23.98;;;-4.30;99.90;;;;;;2031617;29;20139;-71
2022/12/14 03:02:47;;;;;;;43.67;23.08;;;-4.30;99.90;;;;;;2031581;29;20036;-71
2022/12/14 03:03:48;;;;;;;44.58;24.23;;;-4.30;99.90;;;;;;2031310;29;20040;-71
2022/12/14 03:04:49;;;;;;;42.25;22.73;;;-4.20;99.90;;;;;;2032304;29;20038;-70
2022/12/14 03:05:57;;;;;;;45.50;24.33;;;-4.20;99.90;;;;;;2032365;29;20565;-70
2022/12/14 03:07:24;;;;;;;39.65;22.85;;;-4.20;99.90;;;;;;2039537;29;20174;-70
2022/12/14 03:08:28;;;;;;;45.30;23.08;;;-4.20;99.90;;;;;;2034156;29;20487;-71
2022/12/14 03:09:31;;;;;;;41.10;22.17;;;-4.20;99.90;;;;;;2033290;29;20040;-71
2022/12/14 03:10:47;;;;;;;42.08;23.55;;;-4.20;99.90;;;;;;2033372;29;20498;-70
2022/12/14 03:12:08;;;;;;;43.90;22.88;;;-4.20;99.90;;;;;;2038646;29;20031;-70
2022/12/14 03:13:19;;;;;;;;;;;-4.20;99.90;;;;;;2041761;29;20043;-70
2022/12/14 03:14:41;;;;;;;40.08;21.02;;;-4.20;99.90;;;;;;2035420;29;19974;-70
2022/12/14 03:15:45;;;;;;;42.63;22.98;;;-4.20;99.90;;;;;;2040227;29;20036;-70
2022/12/14 03:16:49;;;;;;;43.65;23.10;;;-4.20;99.90;;;;;;2039776;29;20042;-69
2022/12/14 03:17:55;;;;;;;45.50;23.85;;;-4.20;99.90;;;;;;2033098;29;20035;-72
2022/12/14 03:19:17;;;;;;;44.08;23.45;;;-4.20;99.90;;;;;;2033002;29;20031;-70
2022/12/14 03:20:23;;;;;;;42.17;22.60;;;-4.20;99.90;;;;;;2032635;29;20095;-70
2022/12/14 03:21:27;;;;;;;41.35;22.02;;;-4.20;99.90;;;;;;2040057;29;20032;-71
2022/12/14 03:22:36;;;;;;;41.38;22.33;;;-4.20;99.90;;;;;;2039707;29;20048;-70
2022/12/14 03:23:40;;;;;;;44.83;23.60;;;-4.20;99.90;;;;;;2033059;29;20111;-71
2022/12/14 03:24:46;;;;;;;44.33;23.70;;;-4.20;99.90;;;;;;2033012;29;20031;-70
2022/12/14 03:25:58;;;;;;;43.90;23.05;;;-4.20;99.90;;;;;;2033110;29;20032;-70
2022/12/14 03:27:10;;;;;;;43.38;23.20;;;-4.20;99.90;;;;;;2032932;29;20021;-72
2022/12/14 03:28:32;;;;;;;43.33;22.80;;;-4.20;99.90;;;;;;2032986;29;20044;-71
2022/12/14 03:29:45;;;;;;;44.67;23.48;;;-4.20;99.90;;;;;;2032940;29;20500;-71
2022/12/14 03:30:56;;;;;;;42.35;23.30;;;-4.20;99.90;;;;;;2032394;29;20043;-70
2022/12/14 03:32:08;;;;;;;43.95;23.75;;;-4.20;99.90;;;;;;2034733;29;20036;-70
2022/12/14 03:33:15;;;;;;;42.92;23.63;;;-4.20;99.90;;;;;;2039982;29;20024;-71
2022/12/14 03:34:18;;;;;;;47.83;24.42;;;-4.20;99.90;;;;;;2033274;29;20095;-71
2022/12/14 03:35:27;;;;;;;44.85;24.38;;;-4.10;99.90;;;;;;2026587;29;20184;-69
2022/12/14 03:36:43;;;;;;;43.33;23.65;;;-4.10;99.90;;;;;;2032317;29;20028;-70
2022/12/14 03:37:58;;;;;;;43.03;23.45;;;-4.20;99.90;;;;;;2032362;29;20060;-70
2022/12/14 03:39:03;;;;;;;44.28;22.45;;;-4.10;99.90;;;;;;2032008;29;20720;-70
2022/12/14 03:40:07;;;;;;;44.85;23.75;;;-4.10;99.90;;;;;;2032079;29;20028;-71
2022/12/14 03:41:26;;;;;;;45.30;24.35;;;-4.10;99.90;;;;;;2032208;29;20032;-71
2022/12/14 03:42:56;;;;;;;45.90;23.95;;;-4.10;99.90;;;;;;2032818;29;20020;-70
2022/12/14 03:44:44;;;;;;;44.70;23.58;;;-4.10;99.90;;;;;;2031386;29;20110;-70
2022/12/14 03:46:22;;;;;;;44.58;23.35;;;-4.10;99.90;;;;;;2031575;29;20040;-70
2022/12/14 03:47:41;;;;;;;44.03;22.90;;;-4.10;99.90;;;;;;2010628;29;20845;-70
2022/12/14 03:48:58;;;;;;;44.35;23.85;;;-4.10;99.90;;;;;;2032153;29;20489;-70
2022/12/14 03:50:18;;;;;;;43.33;23.23;;;-4.10;99.90;;;;;;2032611;29;20123;-70
2022/12/14 03:51:41;;;;;;;46.70;24.23;;;-4.10;99.90;;;;;;2032465;29;20606;-70
2022/12/14 03:52:48;;;;;;;43.78;23.02;;;-4.10;99.90;;;;;;2032610;29;20036;-69
2022/12/14 03:53:55;;;;;;;43.05;23.85;;;-4.10;99.90;;;;;;2032725;29;20024;-70
2022/12/14 03:54:58;;;;;;;46.50;24.88;;;-4.10;99.90;;;;;;2032024;29;20033;-72
2022/12/14 03:56:33;;;;;;;49.17;25.52;;;-4.10;99.90;;;;;;2032056;29;20051;-71
2022/12/14 03:57:49;;;;;;;42.00;23.42;;;-4.00;99.90;;;;;;2032614;29;20184;-70
2022/12/14 03:59:07;;;;;;;43.85;23.15;;;-4.10;99.90;;;;;;2032463;29;20024;-70
2022/12/14 04:00:11;;;;;;;41.95;22.92;;;-4.10;99.90;;;;;;2032559;29;20107;-71
2022/12/14 04:01:39;;;;;;;43.97;23.35;;;-4.10;99.90;;;;;;2032234;29;20099;-71
2022/12/14 04:02:45;;;;;;;43.55;23.77;;;-4.10;99.90;;;;;;2032625;29;20052;-71
2022/12/14 04:03:57;;;;;;;45.88;25.02;;;-4.10;99.90;;;;;;2032680;29;20034;-70
2022/12/14 04:05:06;;;;;;;44.40;23.50;;;-4.10;99.90;;;;;;2033677;29;20024;-71
2022/12/14 04:06:12;;;;;;;42.92;23.45;;;-4.10;99.90;;;;;;2033332;29;20016;-70
2022/12/14 04:07:32;;;;;;;45.88;24.15;;;-4.10;99.90;;;;;;2033280;29;20032;-71
2022/12/14 04:09:10;;;;;;;42.00;22.77;;;-4.00;99.90;;;;;;2032816;29;20028;-71
2022/12/14 04:18:58;;;;;;;44.33;23.50;;;-4.00;99.90;;;;;;2035027;29;20024;-71
2022/12/14 04:20:25;;;;;;;44.72;23.40;;;-4.00;99.90;;;;;;2034769;29;20016;-71
2022/12/14 04:21:43;;;;;;;42.25;22.92;;;-4.00;99.90;;;;;;2034958;29;20035;-70
2022/12/14 04:22:54;;;;;;;45.22;23.42;;;-4.00;99.90;;;;;;2034018;29;20028;-70
2022/12/14 04:26:57;;;;;;;43.45;23.30;;;-4.00;99.90;;;;;;2040071;29;20063;-71
2022/12/14 04:29:55;;;;;;;42.92;22.67;;;-4.00;99.90;;;;;;2038677;29;20083;-71
2022/12/14 04:30:53;;;;;;;43.45;22.98;;;-4.00;99.90;;;;;;2037948;29;20083;-71
2022/12/14 04:32:00;;;;;;;42.75;23.90;;;-4.00;99.90;;;;;;2038252;29;20107;-71
2022/12/14 04:33:45;;;;;;;44.13;24.73;;;-4.00;99.90;;;;;;2038332;29;20059;-71
2022/12/14 04:34:29;;;;;;;43.00;23.45;;;-4.00;99.90;;;;;;2035529;29;20051;-71
2022/12/14 04:35:36;;;;;;;43.95;23.95;;;-4.00;99.90;;;;;;2034482;29;20137;-72
2022/12/14 04:36:45;;;;;;;41.47;23.05;;;-4.00;99.90;;;;;;2034565;29;20649;-71
2022/12/14 04:38:09;;;;;;;42.88;24.30;;;-4.00;99.90;;;;;;2034128;29;20036;-71
2022/12/14 04:39:20;;;;;;;47.55;24.17;;;-4.00;99.90;;;;;;2033805;29;20028;-71
2022/12/14 04:40:28;;;;;;;46.72;24.35;;;-4.00;99.90;;;;;;2032922;29;20086;-71
2022/12/14 04:41:35;;;;;;;44.40;23.63;;;-4.00;99.90;;;;;;2031707;29;20040;-71
2022/12/14 04:42:45;;;;;;;42.22;23.63;;;-4.00;99.90;;;;;;2032776;29;20051;-71
2022/12/14 04:43:47;;;;;;;;;;;-4.00;99.90;;;;;;2038848;29;20040;-71
2022/12/14 04:45:05;;;;;;;45.08;22.70;;;-4.00;99.90;;;;;;2032304;29;20318;-71
2022/12/14 04:46:17;;;;;;;43.00;22.60;;;-4.00;99.90;;;;;;2032573;29;20056;-71
2022/12/14 04:47:18;;;;;;;41.05;23.05;;;-4.00;99.90;;;;;;2031530;29;20636;-71
2022/12/14 04:48:39;;;;;;;43.78;23.17;;;-4.00;99.90;;;;;;2031765;29;20139;-71
2022/12/14 04:49:49;;;;;;;41.92;22.73;;;-4.10;99.90;;;;;;2023894;29;20089;-71
2022/12/14 04:51:03;;;;;;;42.05;22.33;;;-4.00;99.90;;;;;;2024743;29;20037;-71
2022/12/14 04:52:07;;;;;;;42.67;23.98;;;-4.00;99.90;;;;;;2032493;29;20522;-71
2022/12/14 04:53:16;;;;;;;43.83;24.67;;;-4.00;99.90;;;;;;2032294;29;20036;-71
2022/12/14 04:54:43;;;;;;;45.92;23.90;;;-4.00;99.90;;;;;;2032290;29;20032;-71
2022/12/14 04:55:53;;;;;;;50.40;24.08;;;-4.00;99.90;;;;;;2030450;29;20510;-71
2022/12/14 04:57:03;;;;;;;43.40;23.38;;;-3.90;99.90;;;;;;2024893;29;20542;-71
2022/12/14 04:58:14;;;;;;;45.50;24.05;;;-3.80;99.90;;;;;;2033096;29;20059;-71
2022/12/14 04:59:14;;;;;;;48.88;25.60;;;-3.70;99.90;;;;;;2031796;29;20410;-71
2022/12/14 05:00:15;;;;;;;43.65;23.75;;;-3.70;99.90;;;;;;2023708;29;20088;-71
2022/12/14 05:01:29;;;;;;;44.70;24.40;;;-3.70;99.90;;;;;;2031187;29;20046;-71
2022/12/14 05:02:37;;;;;;;42.67;23.58;;;-3.60;99.90;;;;;;2032238;29;20577;-70
2022/12/14 05:03:53;;;;;;;46.17;24.45;;;-3.70;99.90;;;;;;2032258;29;20119;-70
2022/12/14 05:05:15;;;;;;;44.33;23.30;;;-3.70;99.90;;;;;;2032158;29;20091;-70
2022/12/14 05:06:33;;;;;;;44.90;23.73;;;-3.70;99.90;;;;;;2031547;29;20553;-70
2022/12/14 05:07:37;;;;;;;40.85;22.27;;;-3.60;99.90;;;;;;2031597;29;20033;-71
2022/12/14 05:08:55;;;;;;;41.22;22.67;;;-3.60;99.90;;;;;;2031772;29;20028;-70
2022/12/14 05:10:28;;;;;;;42.33;23.00;;;-3.70;99.90;;;;;;2037419;29;20676;-70
2022/12/14 05:11:35;;;;;;;42.13;22.92;;;-3.70;99.90;;;;;;2032033;29;20063;-71
2022/12/14 05:12:59;;;;;;;42.25;23.70;;;-3.80;99.90;;;;;;2031427;29;20039;-70
2022/12/14 05:14:05;;;;;;;45.83;24.23;;;-3.70;99.90;;;;;;2034529;29;20086;-71
2022/12/14 05:15:22;;;;;;;50.17;27.17;;;-3.70;99.90;;;;;;2038860;29;20027;-71
2022/12/14 05:16:24;;;;;;;51.33;28.48;;;-3.70;99.90;;;;;;2032046;29;20083;-72
2022/12/14 05:17:25;;;;;;;47.00;27.48;;;-3.80;99.90;;;;;;2031528;29;20032;-70
2022/12/14 05:18:26;;;;;;;48.55;27.90;;;-3.80;99.90;;;;;;2031500;29;20032;-72
2022/12/14 05:19:27;;;;;;;48.22;27.92;;;-3.80;99.90;;;;;;2032120;29;20499;-71
2022/12/14 05:20:28;;;;;;;48.10;27.13;;;-3.80;99.90;;;;;;2031442;29;20032;-71
2022/12/14 05:21:46;;;;;;;44.42;24.85;;;-3.90;99.90;;;;;;2032006;29;20035;-72
2022/12/14 05:22:48;;;;;;;44.28;24.73;;;-3.90;99.90;;;;;;2032171;29;20127;-71
2022/12/14 05:23:49;;;;;;;44.75;24.40;;;-3.90;99.90;;;;;;2039316;29;20437;-71
2022/12/14 05:24:50;;;;;;;42.50;23.80;;;-3.90;99.90;;;;;;2039335;29;20086;-71
2022/12/14 05:25:51;;;;;;;42.30;23.40;;;-3.90;99.90;;;;;;2031470;29;20107;-70
2022/12/14 05:26:52;;;;;;;41.97;24.27;;;-3.90;99.90;;;;;;2031433;29;20104;-71
2022/12/14 05:27:52;;;;;;;43.58;24.40;;;-3.90;99.90;;;;;;2032160;29;20451;-70
2022/12/14 05:28:53;;;;;;;45.25;24.55;;;-3.90;99.90;;;;;;2031988;29;20044;-71
2022/12/14 05:29:54;;;;;;;42.22;23.55;;;-3.90;99.90;;;;;;2032314;29;20035;-71
2022/12/14 05:30:54;;;;;;;42.17;23.15;;;-3.90;99.90;;;;;;2030837;29;20024;-70
2022/12/14 05:31:55;;;;;;;43.78;25.65;;;-3.90;99.90;;;;;;2031306;29;20139;-70
2022/12/14 05:32:56;;;;;;;44.13;24.02;;;-3.90;99.90;;;;;;2031995;29;20263;-70
2022/12/14 05:33:57;;;;;;;40.53;23.15;;;-3.90;99.90;;;;;;2031876;29;20023;-70
2022/12/14 05:34:57;;;;;;;41.03;23.30;;;-3.90;99.90;;;;;;2031935;29;20149;-70
2022/12/14 05:35:58;;;;;;;41.60;24.98;;;-3.90;99.90;;;;;;2031984;29;20090;-72
2022/12/14 05:36:59;;;;;;;46.88;26.02;;;-3.90;99.90;;;;;;2031296;29;20083;-70
2022/12/14 05:37:59;;;;;;;44.08;24.52;;;-3.90;99.90;;;;;;2031302;29;20083;-70
2022/12/14 05:39:00;;;;;;;42.47;24.48;;;-3.90;99.90;;;;;;2031092;29;20506;-71
2022/12/14 05:40:01;;;;;;;42.85;23.60;;;-3.90;99.90;;;;;;2031078;29;20078;-70
2022/12/14 05:41:02;;;;;;;43.88;24.00;;;-3.90;99.90;;;;;;2031463;29;20042;-71
2022/12/14 05:42:03;;;;;;;42.92;24.50;;;-3.90;99.90;;;;;;2031821;29;20039;-71
2022/12/14 05:43:09;;;;;;;41.47;23.95;;;-3.90;99.90;;;;;;2031357;29;20655;-70
2022/12/14 05:44:10;;;;;;;42.42;23.73;;;-3.90;99.90;;;;;;2031244;29;20573;-70
2022/12/14 05:45:12;;;;;;;42.42;23.98;;;-3.90;99.90;;;;;;2031605;29;20062;-70
2022/12/14 05:46:12;;;;;;;46.42;25.17;;;-3.90;99.90;;;;;;2030972;29;20647;-70
2022/12/14 05:47:13;;;;;;;47.15;24.63;;;-3.90;99.90;;;;;;2031949;29;20040;-71
2022/12/14 05:48:14;;;;;;;42.67;23.55;;;-3.90;99.90;;;;;;2031802;29;20036;-72
2022/12/14 05:49:15;;;;;;;41.03;23.08;;;-3.90;99.90;;;;;;2031618;29;20127;-70
2022/12/14 05:50:16;;;;;;;44.40;25.77;;;-3.90;99.90;;;;;;2030913;29;20040;-72
2022/12/14 05:51:16;;;;;;;47.70;26.48;;;-3.90;99.90;;;;;;2030626;29;20082;-71
2022/12/14 05:52:18;;;;;;;48.30;26.88;;;-3.90;99.90;;;;;;2031827;29;20043;-71
2022/12/14 05:53:19;;;;;;;48.90;26.70;;;-3.90;99.90;;;;;;2031702;29;20032;-71
2022/12/14 05:54:19;;;;;;;45.65;25.45;;;-3.90;99.90;;;;;;2031637;29;20040;-71
2022/12/14 05:55:21;;;;;;;43.95;23.73;;;-3.90;99.90;;;;;;2031706;29;20034;-71
2022/12/14 05:56:22;;;;;;;41.95;23.35;;;-3.90;99.90;;;;;;2031659;29;20428;-71